Terminal Aerodrome Forecast
Issued by NWS Quad Cities IA IL

Home | Current Version | Previous Version | Text Only | Print | Product List | Glossary On
Versions: 1 2 3 4 5 6 7 8 9 10 11 12 13 14 15 16
893
FTUS43 KDVN 052320
TAFMLI
TAF
KMLI 052320Z 0600/0624 30004KT P6SM SKC
     FM061600 25011KT P6SM SKC=

USA.gov is the U.S. government's official web portal to all federal, state and local government web resources and services.